sensor_id;sensor_type;location;lat;lon;timestamp;P1;durP1;ratioP1;P2;durP2;ratioP2
34828;SDS011;21042;47.620;12.188;2023-05-29T00:00:48;7.55;;;3.70;;
34828;SDS011;21042;47.620;12.188;2023-05-29T00:03:15;7.40;;;3.58;;
34828;SDS011;21042;47.620;12.188;2023-05-29T00:05:44;6.07;;;3.22;;
34828;SDS011;21042;47.620;12.188;2023-05-29T00:08:10;8.25;;;3.95;;
34828;SDS011;21042;47.620;12.188;2023-05-29T00:10:37;7.68;;;4.18;;
34828;SDS011;21042;47.620;12.188;2023-05-29T00:13:04;8.40;;;3.90;;
34828;SDS011;21042;47.620;12.188;2023-05-29T00:15:33;7.05;;;3.47;;
34828;SDS011;21042;47.620;12.188;2023-05-29T00:18:00;6.25;;;3.15;;
34828;SDS011;21042;47.620;12.188;2023-05-29T00:20:27;7.13;;;3.50;;
34828;SDS011;21042;47.620;12.188;2023-05-29T00:22:54;10.27;;;3.70;;
34828;SDS011;21042;47.620;12.188;2023-05-29T00:25:21;5.80;;;3.35;;
34828;SDS011;21042;47.620;12.188;2023-05-29T00:27:48;7.13;;;3.60;;
34828;SDS011;21042;47.620;12.188;2023-05-29T00:30:15;6.35;;;3.28;;
34828;SDS011;21042;47.620;12.188;2023-05-29T00:32:42;7.50;;;3.47;;
34828;SDS011;21042;47.620;12.188;2023-05-29T00:35:09;10.77;;;3.35;;
34828;SDS011;21042;47.620;12.188;2023-05-29T00:37:36;8.55;;;3.67;;
34828;SDS011;21042;47.620;12.188;2023-05-29T00:40:03;8.85;;;3.50;;
34828;SDS011;21042;47.620;12.188;2023-05-29T00:42:31;9.93;;;4.07;;
34828;SDS011;21042;47.620;12.188;2023-05-29T00:44:57;6.38;;;3.50;;
34828;SDS011;21042;47.620;12.188;2023-05-29T00:47:24;8.60;;;4.20;;
34828;SDS011;21042;47.620;12.188;2023-05-29T00:52:58;8.40;;;3.80;;
34828;SDS011;21042;47.620;12.188;2023-05-29T00:55:28;7.47;;;3.50;;
34828;SDS011;21042;47.620;12.188;2023-05-29T00:57:56;10.32;;;3.60;;
34828;SDS011;21042;47.620;12.188;2023-05-29T01:00:23;8.30;;;3.88;;
34828;SDS011;21042;47.620;12.188;2023-05-29T01:07:45;8.43;;;3.70;;
34828;SDS011;21042;47.620;12.188;2023-05-29T01:10:13;11.60;;;3.70;;
34828;SDS011;21042;47.620;12.188;2023-05-29T01:12:43;7.03;;;3.60;;
34828;SDS011;21042;47.620;12.188;2023-05-29T01:18:17;8.02;;;3.80;;
34828;SDS011;21042;47.620;12.188;2023-05-29T01:21:03;7.25;;;3.50;;
34828;SDS011;21042;47.620;12.188;2023-05-29T01:26:55;8.95;;;3.50;;
34828;SDS011;21042;47.620;12.188;2023-05-29T01:29:28;8.93;;;3.80;;
34828;SDS011;21042;47.620;12.188;2023-05-29T01:31:59;6.00;;;3.50;;
34828;SDS011;21042;47.620;12.188;2023-05-29T01:34:30;9.30;;;4.28;;
34828;SDS011;21042;47.620;12.188;2023-05-29T01:36:57;6.53;;;3.67;;
34828;SDS011;21042;47.620;12.188;2023-05-29T01:39:24;8.63;;;3.60;;
34828;SDS011;21042;47.620;12.188;2023-05-29T01:41:51;8.88;;;3.47;;
34828;SDS011;21042;47.620;12.188;2023-05-29T01:44:19;7.60;;;3.70;;
34828;SDS011;21042;47.620;12.188;2023-05-29T01:46:47;8.93;;;3.35;;
34828;SDS011;21042;47.620;12.188;2023-05-29T01:49:15;8.07;;;3.67;;
34828;SDS011;21042;47.620;12.188;2023-05-29T01:51:43;8.38;;;4.00;;
34828;SDS011;21042;47.620;12.188;2023-05-29T01:54:10;8.65;;;4.00;;
34828;SDS011;21042;47.620;12.188;2023-05-29T01:56:37;9.02;;;3.60;;
34828;SDS011;21042;47.620;12.188;2023-05-29T01:59:05;8.40;;;3.33;;
34828;SDS011;21042;47.620;12.188;2023-05-29T02:01:32;8.07;;;3.67;;
34828;SDS011;21042;47.620;12.188;2023-05-29T02:03:59;6.93;;;3.97;;
34828;SDS011;21042;47.620;12.188;2023-05-29T02:06:26;8.00;;;3.75;;
34828;SDS011;21042;47.620;12.188;2023-05-29T02:08:53;7.85;;;3.38;;
34828;SDS011;21042;47.620;12.188;2023-05-29T02:11:20;12.70;;;4.32;;
34828;SDS011;21042;47.620;12.188;2023-05-29T02:13:48;8.95;;;4.68;;
34828;SDS011;21042;47.620;12.188;2023-05-29T02:16:14;7.13;;;4.03;;
34828;SDS011;21042;47.620;12.188;2023-05-29T02:18:41;8.52;;;4.45;;
34828;SDS011;21042;47.620;12.188;2023-05-29T02:21:10;10.02;;;4.40;;
34828;SDS011;21042;47.620;12.188;2023-05-29T02:23:37;7.40;;;4.47;;
34828;SDS011;21042;47.620;12.188;2023-05-29T02:26:04;9.32;;;3.50;;
34828;SDS011;21042;47.620;12.188;2023-05-29T02:28:31;5.70;;;3.47;;
34828;SDS011;21042;47.620;12.188;2023-05-29T02:30:58;8.40;;;3.83;;
34828;SDS011;21042;47.620;12.188;2023-05-29T02:33:25;7.97;;;3.90;;
34828;SDS011;21042;47.620;12.188;2023-05-29T02:35:53;9.27;;;3.80;;
34828;SDS011;21042;47.620;12.188;2023-05-29T02:38:20;7.30;;;3.42;;
34828;SDS011;21042;47.620;12.188;2023-05-29T02:40:47;7.85;;;3.67;;
34828;SDS011;21042;47.620;12.188;2023-05-29T02:43:13;9.48;;;4.18;;
34828;SDS011;21042;47.620;12.188;2023-05-29T02:45:40;10.60;;;4.57;;
34828;SDS011;21042;47.620;12.188;2023-05-29T02:48:07;14.50;;;4.60;;
34828;SDS011;21042;47.620;12.188;2023-05-29T02:50:36;10.82;;;4.03;;
34828;SDS011;21042;47.620;12.188;2023-05-29T02:53:02;9.02;;;4.35;;
34828;SDS011;21042;47.620;12.188;2023-05-29T02:55:29;7.63;;;3.85;;
34828;SDS011;21042;47.620;12.188;2023-05-29T02:57:58;5.78;;;3.40;;
34828;SDS011;21042;47.620;12.188;2023-05-29T03:00:26;9.57;;;4.15;;
34828;SDS011;21042;47.620;12.188;2023-05-29T03:02:57;7.53;;;4.20;;
34828;SDS011;21042;47.620;12.188;2023-05-29T03:05:24;7.95;;;4.30;;
34828;SDS011;21042;47.620;12.188;2023-05-29T03:07:52;11.15;;;4.30;;
34828;SDS011;21042;47.620;12.188;2023-05-29T03:10:19;8.13;;;3.75;;
34828;SDS011;21042;47.620;12.188;2023-05-29T03:12:46;9.27;;;4.13;;
34828;SDS011;21042;47.620;12.188;2023-05-29T03:15:14;7.38;;;4.28;;
34828;SDS011;21042;47.620;12.188;2023-05-29T03:17:41;6.90;;;4.05;;
34828;SDS011;21042;47.620;12.188;2023-05-29T03:20:11;8.73;;;3.92;;
34828;SDS011;21042;47.620;12.188;2023-05-29T03:22:39;13.60;;;4.38;;
34828;SDS011;21042;47.620;12.188;2023-05-29T03:25:07;7.80;;;4.30;;
34828;SDS011;21042;47.620;12.188;2023-05-29T03:27:35;6.35;;;3.80;;
34828;SDS011;21042;47.620;12.188;2023-05-29T03:30:10;7.38;;;4.28;;
34828;SDS011;21042;47.620;12.188;2023-05-29T03:32:38;9.27;;;4.22;;
34828;SDS011;21042;47.620;12.188;2023-05-29T03:35:07;6.13;;;3.83;;
34828;SDS011;21042;47.620;12.188;2023-05-29T03:37:36;10.52;;;4.40;;
34828;SDS011;21042;47.620;12.188;2023-05-29T03:40:03;9.85;;;4.05;;
34828;SDS011;21042;47.620;12.188;2023-05-29T03:42:31;8.93;;;3.78;;
34828;SDS011;21042;47.620;12.188;2023-05-29T03:44:59;7.63;;;4.32;;
34828;SDS011;21042;47.620;12.188;2023-05-29T03:47:27;8.77;;;4.57;;
34828;SDS011;21042;47.620;12.188;2023-05-29T03:49:54;11.02;;;4.45;;
34828;SDS011;21042;47.620;12.188;2023-05-29T03:52:21;7.15;;;4.20;;
34828;SDS011;21042;47.620;12.188;2023-05-29T03:54:48;10.48;;;4.80;;
34828;SDS011;21042;47.620;12.188;2023-05-29T03:57:15;7.88;;;4.35;;
34828;SDS011;21042;47.620;12.188;2023-05-29T03:59:43;8.13;;;4.13;;
34828;SDS011;21042;47.620;12.188;2023-05-29T04:02:10;6.65;;;3.97;;
34828;SDS011;21042;47.620;12.188;2023-05-29T04:04:40;9.05;;;4.00;;
34828;SDS011;21042;47.620;12.188;2023-05-29T04:07:07;6.78;;;3.95;;
34828;SDS011;21042;47.620;12.188;2023-05-29T04:09:33;10.48;;;4.50;;
34828;SDS011;21042;47.620;12.188;2023-05-29T04:12:00;7.03;;;4.18;;
34828;SDS011;21042;47.620;12.188;2023-05-29T04:14:32;12.88;;;4.10;;
34828;SDS011;21042;47.620;12.188;2023-05-29T04:16:59;12.63;;;4.97;;
34828;SDS011;21042;47.620;12.188;2023-05-29T04:19:26;9.15;;;4.20;;
34828;SDS011;21042;47.620;12.188;2023-05-29T04:21:53;9.13;;;4.60;;
34828;SDS011;21042;47.620;12.188;2023-05-29T04:24:20;12.35;;;5.43;;
34828;SDS011;21042;47.620;12.188;2023-05-29T04:26:47;11.32;;;5.10;;
34828;SDS011;21042;47.620;12.188;2023-05-29T04:29:14;12.02;;;5.80;;
34828;SDS011;21042;47.620;12.188;2023-05-29T04:31:43;14.50;;;6.28;;
34828;SDS011;21042;47.620;12.188;2023-05-29T04:34:10;9.52;;;6.45;;
34828;SDS011;21042;47.620;12.188;2023-05-29T04:36:37;10.98;;;6.05;;
34828;SDS011;21042;47.620;12.188;2023-05-29T04:39:09;10.68;;;4.82;;
34828;SDS011;21042;47.620;12.188;2023-05-29T04:41:36;10.82;;;4.70;;
34828;SDS011;21042;47.620;12.188;2023-05-29T04:44:06;8.27;;;4.50;;
34828;SDS011;21042;47.620;12.188;2023-05-29T04:46:42;11.90;;;6.03;;
34828;SDS011;21042;47.620;12.188;2023-05-29T04:49:11;10.02;;;5.78;;
34828;SDS011;21042;47.620;12.188;2023-05-29T04:51:39;11.88;;;6.10;;
34828;SDS011;21042;47.620;12.188;2023-05-29T04:54:09;12.30;;;6.30;;
34828;SDS011;21042;47.620;12.188;2023-05-29T04:56:38;12.43;;;6.43;;
34828;SDS011;21042;47.620;12.188;2023-05-29T04:59:08;12.68;;;5.82;;
34828;SDS011;21042;47.620;12.188;2023-05-29T05:01:35;12.25;;;5.53;;
34828;SDS011;21042;47.620;12.188;2023-05-29T05:04:02;9.80;;;5.13;;
34828;SDS011;21042;47.620;12.188;2023-05-29T05:06:29;8.32;;;4.88;;
34828;SDS011;21042;47.620;12.188;2023-05-29T05:08:57;9.32;;;5.00;;
34828;SDS011;21042;47.620;12.188;2023-05-29T05:11:24;11.95;;;5.70;;
34828;SDS011;21042;47.620;12.188;2023-05-29T05:13:51;11.05;;;5.68;;
34828;SDS011;21042;47.620;12.188;2023-05-29T05:16:18;10.38;;;5.70;;
34828;SDS011;21042;47.620;12.188;2023-05-29T05:18:45;8.65;;;5.72;;
34828;SDS011;21042;47.620;12.188;2023-05-29T05:21:12;11.63;;;6.05;;
34828;SDS011;21042;47.620;12.188;2023-05-29T05:23:40;10.25;;;5.43;;
34828;SDS011;21042;47.620;12.188;2023-05-29T05:26:23;10.35;;;6.20;;
34828;SDS011;21042;47.620;12.188;2023-05-29T05:28:52;9.15;;;5.35;;
34828;SDS011;21042;47.620;12.188;2023-05-29T05:31:19;11.00;;;6.25;;
34828;SDS011;21042;47.620;12.188;2023-05-29T05:33:46;12.45;;;7.07;;
34828;SDS011;21042;47.620;12.188;2023-05-29T05:36:12;10.57;;;6.18;;
34828;SDS011;21042;47.620;12.188;2023-05-29T05:38:40;10.60;;;6.05;;
34828;SDS011;21042;47.620;12.188;2023-05-29T05:41:07;9.52;;;6.18;;
34828;SDS011;21042;47.620;12.188;2023-05-29T05:43:34;9.15;;;6.10;;
34828;SDS011;21042;47.620;12.188;2023-05-29T05:46:11;9.68;;;5.82;;
34828;SDS011;21042;47.620;12.188;2023-05-29T05:48:40;9.02;;;5.70;;
34828;SDS011;21042;47.620;12.188;2023-05-29T05:51:07;13.52;;;5.88;;
34828;SDS011;21042;47.620;12.188;2023-05-29T05:53:34;10.98;;;6.10;;
34828;SDS011;21042;47.620;12.188;2023-05-29T05:58:28;11.13;;;6.65;;
34828;SDS011;21042;47.620;12.188;2023-05-29T06:06:00;12.00;;;5.75;;
34828;SDS011;21042;47.620;12.188;2023-05-29T06:08:27;11.27;;;6.93;;
34828;SDS011;21042;47.620;12.188;2023-05-29T06:10:55;11.98;;;6.15;;
34828;SDS011;21042;47.620;12.188;2023-05-29T06:13:22;14.07;;;6.30;;
34828;SDS011;21042;47.620;12.188;2023-05-29T06:15:55;12.93;;;6.47;;
34828;SDS011;21042;47.620;12.188;2023-05-29T06:18:22;11.10;;;6.03;;
34828;SDS011;21042;47.620;12.188;2023-05-29T06:20:49;13.68;;;6.93;;
34828;SDS011;21042;47.620;12.188;2023-05-29T06:23:16;9.93;;;5.88;;
34828;SDS011;21042;47.620;12.188;2023-05-29T06:25:43;9.93;;;6.15;;
34828;SDS011;21042;47.620;12.188;2023-05-29T06:28:10;11.57;;;6.38;;
34828;SDS011;21042;47.620;12.188;2023-05-29T06:30:38;17.10;;;7.13;;
34828;SDS011;21042;47.620;12.188;2023-05-29T06:33:06;14.23;;;6.57;;
34828;SDS011;21042;47.620;12.188;2023-05-29T06:35:36;12.32;;;7.28;;
34828;SDS011;21042;47.620;12.188;2023-05-29T06:38:03;10.73;;;5.97;;
34828;SDS011;21042;47.620;12.188;2023-05-29T06:40:30;10.82;;;5.80;;
34828;SDS011;21042;47.620;12.188;2023-05-29T06:42:57;10.80;;;6.82;;
34828;SDS011;21042;47.620;12.188;2023-05-29T06:45:45;10.65;;;6.70;;
34828;SDS011;21042;47.620;12.188;2023-05-29T06:48:12;11.43;;;6.07;;
34828;SDS011;21042;47.620;12.188;2023-05-29T06:50:39;12.05;;;5.85;;
34828;SDS011;21042;47.620;12.188;2023-05-29T06:53:34;9.88;;;5.72;;
34828;SDS011;21042;47.620;12.188;2023-05-29T06:56:01;11.27;;;5.78;;
34828;SDS011;21042;47.620;12.188;2023-05-29T06:58:29;11.50;;;5.60;;
34828;SDS011;21042;47.620;12.188;2023-05-29T07:00:57;10.35;;;5.07;;
34828;SDS011;21042;47.620;12.188;2023-05-29T07:03:31;15.20;;;5.88;;
34828;SDS011;21042;47.620;12.188;2023-05-29T07:06:00;13.25;;;5.97;;
34828;SDS011;21042;47.620;12.188;2023-05-29T07:08:27;9.68;;;6.10;;
34828;SDS011;21042;47.620;12.188;2023-05-29T07:10:54;11.93;;;6.10;;
34828;SDS011;21042;47.620;12.188;2023-05-29T07:13:22;11.48;;;5.65;;
34828;SDS011;21042;47.620;12.188;2023-05-29T07:15:51;9.18;;;5.80;;
34828;SDS011;21042;47.620;12.188;2023-05-29T07:18:24;7.93;;;5.70;;
34828;SDS011;21042;47.620;12.188;2023-05-29T07:20:51;10.35;;;5.15;;
34828;SDS011;21042;47.620;12.188;2023-05-29T07:23:20;13.35;;;6.50;;
34828;SDS011;21042;47.620;12.188;2023-05-29T07:25:46;13.00;;;5.85;;
34828;SDS011;21042;47.620;12.188;2023-05-29T07:28:13;8.52;;;5.53;;
34828;SDS011;21042;47.620;12.188;2023-05-29T07:30:46;11.70;;;5.70;;
34828;SDS011;21042;47.620;12.188;2023-05-29T07:33:13;11.88;;;5.68;;
34828;SDS011;21042;47.620;12.188;2023-05-29T07:35:40;8.07;;;5.45;;
34828;SDS011;21042;47.620;12.188;2023-05-29T07:38:08;9.68;;;5.80;;
34828;SDS011;21042;47.620;12.188;2023-05-29T07:40:35;8.10;;;5.10;;
34828;SDS011;21042;47.620;12.188;2023-05-29T07:43:20;12.10;;;6.25;;
34828;SDS011;21042;47.620;12.188;2023-05-29T07:45:53;9.30;;;6.00;;
34828;SDS011;21042;47.620;12.188;2023-05-29T07:48:20;12.02;;;5.57;;
34828;SDS011;21042;47.620;12.188;2023-05-29T07:50:49;10.60;;;5.25;;
34828;SDS011;21042;47.620;12.188;2023-05-29T07:53:17;9.63;;;5.95;;
34828;SDS011;21042;47.620;12.188;2023-05-29T07:55:46;11.68;;;6.15;;
34828;SDS011;21042;47.620;12.188;2023-05-29T07:58:13;13.18;;;5.47;;
34828;SDS011;21042;47.620;12.188;2023-05-29T08:00:40;9.75;;;5.68;;
34828;SDS011;21042;47.620;12.188;2023-05-29T08:03:07;13.38;;;5.88;;
34828;SDS011;21042;47.620;12.188;2023-05-29T08:05:53;10.15;;;5.40;;
34828;SDS011;21042;47.620;12.188;2023-05-29T08:08:21;14.43;;;6.35;;
34828;SDS011;21042;47.620;12.188;2023-05-29T08:10:52;11.43;;;5.85;;
34828;SDS011;21042;47.620;12.188;2023-05-29T08:13:20;11.93;;;6.45;;
34828;SDS011;21042;47.620;12.188;2023-05-29T08:15:47;10.07;;;5.80;;
34828;SDS011;21042;47.620;12.188;2023-05-29T08:18:14;8.98;;;5.32;;
34828;SDS011;21042;47.620;12.188;2023-05-29T08:20:40;10.30;;;5.68;;
34828;SDS011;21042;47.620;12.188;2023-05-29T08:23:09;9.75;;;5.72;;
34828;SDS011;21042;47.620;12.188;2023-05-29T08:25:35;10.73;;;6.22;;
34828;SDS011;21042;47.620;12.188;2023-05-29T08:28:02;9.48;;;5.47;;
34828;SDS011;21042;47.620;12.188;2023-05-29T08:30:29;12.48;;;6.22;;
34828;SDS011;21042;47.620;12.188;2023-05-29T08:32:56;11.73;;;5.95;;
34828;SDS011;21042;47.620;12.188;2023-05-29T08:35:22;14.65;;;6.05;;
34828;SDS011;21042;47.620;12.188;2023-05-29T08:37:49;11.70;;;5.78;;
34828;SDS011;21042;47.620;12.188;2023-05-29T08:40:16;9.68;;;4.95;;
34828;SDS011;21042;47.620;12.188;2023-05-29T08:42:47;11.68;;;6.30;;
34828;SDS011;21042;47.620;12.188;2023-05-29T08:45:22;8.00;;;5.65;;
34828;SDS011;21042;47.620;12.188;2023-05-29T08:47:52;13.00;;;5.93;;
34828;SDS011;21042;47.620;12.188;2023-05-29T08:50:20;10.82;;;6.03;;
34828;SDS011;21042;47.620;12.188;2023-05-29T08:52:48;13.45;;;5.80;;
34828;SDS011;21042;47.620;12.188;2023-05-29T08:55:15;8.52;;;5.57;;
34828;SDS011;21042;47.620;12.188;2023-05-29T08:57:42;9.65;;;5.78;;
34828;SDS011;21042;47.620;12.188;2023-05-29T09:00:11;12.15;;;6.05;;
34828;SDS011;21042;47.620;12.188;2023-05-29T09:02:41;10.02;;;5.57;;
34828;SDS011;21042;47.620;12.188;2023-05-29T09:05:12;11.63;;;5.55;;
34828;SDS011;21042;47.620;12.188;2023-05-29T09:07:39;9.73;;;5.72;;
34828;SDS011;21042;47.620;12.188;2023-05-29T09:10:07;12.45;;;5.75;;
34828;SDS011;21042;47.620;12.188;2023-05-29T09:12:35;12.48;;;5.90;;
34828;SDS011;21042;47.620;12.188;2023-05-29T09:15:02;8.25;;;5.18;;
34828;SDS011;21042;47.620;12.188;2023-05-29T09:17:34;11.55;;;5.78;;
34828;SDS011;21042;47.620;12.188;2023-05-29T09:22:31;13.23;;;6.47;;
34828;SDS011;21042;47.620;12.188;2023-05-29T09:24:58;11.80;;;5.35;;
34828;SDS011;21042;47.620;12.188;2023-05-29T09:29:53;8.02;;;4.32;;
34828;SDS011;21042;47.620;12.188;2023-05-29T09:32:20;8.65;;;4.45;;
34828;SDS011;21042;47.620;12.188;2023-05-29T09:34:47;7.82;;;5.10;;
34828;SDS011;21042;47.620;12.188;2023-05-29T09:37:14;14.32;;;5.18;;
34828;SDS011;21042;47.620;12.188;2023-05-29T09:39:50;12.70;;;5.63;;
34828;SDS011;21042;47.620;12.188;2023-05-29T09:42:20;10.48;;;5.18;;
34828;SDS011;21042;47.620;12.188;2023-05-29T09:44:50;11.30;;;5.25;;
34828;SDS011;21042;47.620;12.188;2023-05-29T09:47:18;13.00;;;5.63;;
34828;SDS011;21042;47.620;12.188;2023-05-29T09:49:45;11.23;;;5.57;;
34828;SDS011;21042;47.620;12.188;2023-05-29T09:54:42;10.75;;;5.82;;
34828;SDS011;21042;47.620;12.188;2023-05-29T09:57:13;7.38;;;4.50;;
34828;SDS011;21042;47.620;12.188;2023-05-29T09:59:41;10.35;;;5.43;;
34828;SDS011;21042;47.620;12.188;2023-05-29T10:02:12;14.60;;;4.97;;
34828;SDS011;21042;47.620;12.188;2023-05-29T10:04:41;9.25;;;4.68;;
34828;SDS011;21042;47.620;12.188;2023-05-29T10:07:12;12.57;;;5.28;;
34828;SDS011;21042;47.620;12.188;2023-05-29T10:09:52;9.45;;;5.38;;
34828;SDS011;21042;47.620;12.188;2023-05-29T10:12:24;8.23;;;5.30;;
34828;SDS011;21042;47.620;12.188;2023-05-29T10:14:56;9.90;;;5.35;;
34828;SDS011;21042;47.620;12.188;2023-05-29T10:17:26;9.15;;;5.07;;
34828;SDS011;21042;47.620;12.188;2023-05-29T10:19:58;8.98;;;5.22;;
34828;SDS011;21042;47.620;12.188;2023-05-29T10:22:29;9.50;;;5.25;;
34828;SDS011;21042;47.620;12.188;2023-05-29T10:24:58;11.57;;;5.65;;
34828;SDS011;21042;47.620;12.188;2023-05-29T10:27:25;9.60;;;5.35;;
34828;SDS011;21042;47.620;12.188;2023-05-29T10:29:56;8.30;;;4.75;;
34828;SDS011;21042;47.620;12.188;2023-05-29T10:35:31;10.18;;;4.97;;
34828;SDS011;21042;47.620;12.188;2023-05-29T10:38:13;11.68;;;5.13;;
34828;SDS011;21042;47.620;12.188;2023-05-29T10:40:42;11.20;;;5.18;;
34828;SDS011;21042;47.620;12.188;2023-05-29T10:45:58;7.38;;;4.60;;
34828;SDS011;21042;47.620;12.188;2023-05-29T10:50:55;7.30;;;4.65;;
34828;SDS011;21042;47.620;12.188;2023-05-29T10:53:30;8.57;;;4.70;;
34828;SDS011;21042;47.620;12.188;2023-05-29T10:56:00;7.93;;;4.80;;
34828;SDS011;21042;47.620;12.188;2023-05-29T10:58:28;6.53;;;4.47;;
34828;SDS011;21042;47.620;12.188;2023-05-29T11:00:56;8.63;;;4.55;;
34828;SDS011;21042;47.620;12.188;2023-05-29T11:03:26;7.90;;;4.47;;
34828;SDS011;21042;47.620;12.188;2023-05-29T11:06:04;7.55;;;4.90;;
34828;SDS011;21042;47.620;12.188;2023-05-29T11:08:33;11.02;;;5.10;;
34828;SDS011;21042;47.620;12.188;2023-05-29T11:11:02;8.35;;;4.93;;
34828;SDS011;21042;47.620;12.188;2023-05-29T11:13:33;7.43;;;4.05;;
34828;SDS011;21042;47.620;12.188;2023-05-29T11:16:05;7.43;;;4.82;;
34828;SDS011;21042;47.620;12.188;2023-05-29T11:18:50;8.15;;;4.43;;
34828;SDS011;21042;47.620;12.188;2023-05-29T11:24:01;7.47;;;4.40;;
34828;SDS011;21042;47.620;12.188;2023-05-29T11:26:33;7.75;;;4.47;;
34828;SDS011;21042;47.620;12.188;2023-05-29T11:29:03;7.18;;;4.68;;
34828;SDS011;21042;47.620;12.188;2023-05-29T11:31:33;9.32;;;4.97;;
34828;SDS011;21042;47.620;12.188;2023-05-29T11:34:01;8.15;;;4.78;;
34828;SDS011;21042;47.620;12.188;2023-05-29T11:36:32;10.73;;;4.72;;
34828;SDS011;21042;47.620;12.188;2023-05-29T11:39:00;9.25;;;5.47;;
34828;SDS011;21042;47.620;12.188;2023-05-29T11:41:27;8.05;;;5.10;;
34828;SDS011;21042;47.620;12.188;2023-05-29T11:43:57;6.82;;;5.07;;
34828;SDS011;21042;47.620;12.188;2023-05-29T11:46:32;7.80;;;4.78;;
34828;SDS011;21042;47.620;12.188;2023-05-29T11:49:00;6.90;;;4.65;;
34828;SDS011;21042;47.620;12.188;2023-05-29T11:51:27;9.90;;;5.00;;
34828;SDS011;21042;47.620;12.188;2023-05-29T11:53:54;5.88;;;4.30;;
34828;SDS011;21042;47.620;12.188;2023-05-29T11:56:25;7.93;;;5.18;;
34828;SDS011;21042;47.620;12.188;2023-05-29T11:58:53;7.28;;;4.75;;
34828;SDS011;21042;47.620;12.188;2023-05-29T12:01:24;9.40;;;5.07;;
34828;SDS011;21042;47.620;12.188;2023-05-29T12:03:51;12.50;;;5.05;;
34828;SDS011;21042;47.620;12.188;2023-05-29T12:06:34;10.73;;;4.38;;
34828;SDS011;21042;47.620;12.188;2023-05-29T12:09:05;8.07;;;4.97;;
34828;SDS011;21042;47.620;12.188;2023-05-29T12:11:31;10.52;;;4.97;;
34828;SDS011;21042;47.620;12.188;2023-05-29T12:14:01;9.43;;;5.10;;
34828;SDS011;21042;47.620;12.188;2023-05-29T12:16:28;9.80;;;4.78;;
34828;SDS011;21042;47.620;12.188;2023-05-29T12:18:58;6.72;;;4.63;;
34828;SDS011;21042;47.620;12.188;2023-05-29T12:21:26;11.55;;;4.82;;
34828;SDS011;21042;47.620;12.188;2023-05-29T12:23:53;10.73;;;5.20;;
34828;SDS011;21042;47.620;12.188;2023-05-29T12:26:39;8.10;;;4.65;;
34828;SDS011;21042;47.620;12.188;2023-05-29T12:29:06;9.15;;;4.78;;
34828;SDS011;21042;47.620;12.188;2023-05-29T12:31:33;8.48;;;4.35;;
34828;SDS011;21042;47.620;12.188;2023-05-29T12:34:01;8.18;;;4.43;;
34828;SDS011;21042;47.620;12.188;2023-05-29T12:36:41;11.73;;;5.03;;
34828;SDS011;21042;47.620;12.188;2023-05-29T12:39:09;8.10;;;4.40;;
34828;SDS011;21042;47.620;12.188;2023-05-29T12:41:36;11.65;;;5.30;;
34828;SDS011;21042;47.620;12.188;2023-05-29T12:44:04;6.63;;;4.32;;
34828;SDS011;21042;47.620;12.188;2023-05-29T12:46:36;9.25;;;5.22;;
34828;SDS011;21042;47.620;12.188;2023-05-29T12:49:13;8.15;;;4.75;;
34828;SDS011;21042;47.620;12.188;2023-05-29T12:51:41;8.43;;;5.05;;
34828;SDS011;21042;47.620;12.188;2023-05-29T12:54:10;6.97;;;4.00;;
34828;SDS011;21042;47.620;12.188;2023-05-29T12:56:38;6.75;;;4.47;;
34828;SDS011;21042;47.620;12.188;2023-05-29T12:59:08;9.88;;;5.15;;
34828;SDS011;21042;47.620;12.188;2023-05-29T13:01:36;7.38;;;4.32;;
34828;SDS011;21042;47.620;12.188;2023-05-29T13:04:05;7.65;;;4.00;;
34828;SDS011;21042;47.620;12.188;2023-05-29T13:06:37;7.18;;;3.88;;
34828;SDS011;21042;47.620;12.188;2023-05-29T13:09:04;7.00;;;4.05;;
34828;SDS011;21042;47.620;12.188;2023-05-29T13:11:32;7.55;;;4.22;;
34828;SDS011;21042;47.620;12.188;2023-05-29T13:14:01;8.32;;;4.68;;
34828;SDS011;21042;47.620;12.188;2023-05-29T13:16:28;8.43;;;4.30;;
34828;SDS011;21042;47.620;12.188;2023-05-29T13:21:22;7.85;;;4.70;;
34828;SDS011;21042;47.620;12.188;2023-05-29T13:23:48;9.85;;;5.18;;
34828;SDS011;21042;47.620;12.188;2023-05-29T13:26:15;8.75;;;4.22;;
34828;SDS011;21042;47.620;12.188;2023-05-29T13:28:42;8.32;;;4.68;;
34828;SDS011;21042;47.620;12.188;2023-05-29T13:31:09;8.40;;;5.00;;
34828;SDS011;21042;47.620;12.188;2023-05-29T13:33:35;7.53;;;4.70;;
34828;SDS011;21042;47.620;12.188;2023-05-29T13:36:02;8.40;;;4.85;;
34828;SDS011;21042;47.620;12.188;2023-05-29T13:38:29;7.63;;;4.70;;
34828;SDS011;21042;47.620;12.188;2023-05-29T13:40:55;7.32;;;4.68;;
34828;SDS011;21042;47.620;12.188;2023-05-29T13:43:22;9.48;;;4.60;;
34828;SDS011;21042;47.620;12.188;2023-05-29T13:46:04;9.55;;;4.43;;
34828;SDS011;21042;47.620;12.188;2023-05-29T13:48:31;7.97;;;4.57;;
34828;SDS011;21042;47.620;12.188;2023-05-29T13:51:00;8.70;;;5.30;;
34828;SDS011;21042;47.620;12.188;2023-05-29T13:53:27;8.23;;;4.57;;
34828;SDS011;21042;47.620;12.188;2023-05-29T13:55:53;8.43;;;4.85;;
34828;SDS011;21042;47.620;12.188;2023-05-29T14:00:47;8.85;;;4.50;;
34828;SDS011;21042;47.620;12.188;2023-05-29T14:03:14;10.60;;;4.55;;
34828;SDS011;21042;47.620;12.188;2023-05-29T14:05:40;10.30;;;4.78;;
34828;SDS011;21042;47.620;12.188;2023-05-29T14:08:07;8.77;;;5.28;;
34828;SDS011;21042;47.620;12.188;2023-05-29T14:10:34;7.32;;;4.53;;
34828;SDS011;21042;47.620;12.188;2023-05-29T14:13:01;8.18;;;4.68;;
34828;SDS011;21042;47.620;12.188;2023-05-29T14:15:28;9.98;;;5.13;;
34828;SDS011;21042;47.620;12.188;2023-05-29T14:17:54;10.05;;;4.30;;
34828;SDS011;21042;47.620;12.188;2023-05-29T14:20:21;9.15;;;4.63;;
34828;SDS011;21042;47.620;12.188;2023-05-29T14:22:48;11.07;;;5.00;;
34828;SDS011;21042;47.620;12.188;2023-05-29T14:25:15;6.90;;;4.38;;
34828;SDS011;21042;47.620;12.188;2023-05-29T14:27:41;8.95;;;4.47;;
34828;SDS011;21042;47.620;12.188;2023-05-29T14:30:08;13.77;;;4.75;;
34828;SDS011;21042;47.620;12.188;2023-05-29T14:32:35;6.82;;;4.32;;
34828;SDS011;21042;47.620;12.188;2023-05-29T14:37:29;7.55;;;4.10;;
34828;SDS011;21042;47.620;12.188;2023-05-29T14:39:56;6.18;;;4.15;;
34828;SDS011;21042;47.620;12.188;2023-05-29T14:42:22;7.53;;;5.07;;
34828;SDS011;21042;47.620;12.188;2023-05-29T14:44:49;9.13;;;4.28;;
34828;SDS011;21042;47.620;12.188;2023-05-29T14:49:44;7.00;;;4.25;;
34828;SDS011;21042;47.620;12.188;2023-05-29T14:52:11;6.30;;;3.92;;
34828;SDS011;21042;47.620;12.188;2023-05-29T14:54:38;7.93;;;4.70;;
34828;SDS011;21042;47.620;12.188;2023-05-29T14:59:32;10.63;;;4.70;;
34828;SDS011;21042;47.620;12.188;2023-05-29T15:01:59;5.70;;;3.90;;
34828;SDS011;21042;47.620;12.188;2023-05-29T15:04:26;9.15;;;4.97;;
34828;SDS011;21042;47.620;12.188;2023-05-29T15:06:53;8.82;;;5.05;;
34828;SDS011;21042;47.620;12.188;2023-05-29T15:09:31;9.68;;;4.90;;
34828;SDS011;21042;47.620;12.188;2023-05-29T15:11:59;8.05;;;4.40;;
34828;SDS011;21042;47.620;12.188;2023-05-29T15:14:26;6.63;;;4.45;;
34828;SDS011;21042;47.620;12.188;2023-05-29T15:16:53;5.95;;;4.15;;
34828;SDS011;21042;47.620;12.188;2023-05-29T15:19:21;9.90;;;4.50;;
34828;SDS011;21042;47.620;12.188;2023-05-29T15:21:48;13.25;;;5.13;;
34828;SDS011;21042;47.620;12.188;2023-05-29T15:24:15;6.00;;;3.72;;
34828;SDS011;21042;47.620;12.188;2023-05-29T15:26:41;7.10;;;4.00;;
34828;SDS011;21042;47.620;12.188;2023-05-29T15:29:08;7.32;;;4.40;;
34828;SDS011;21042;47.620;12.188;2023-05-29T15:31:35;7.47;;;4.65;;